Time;durP1;ratioP1;P1;durP2;ratioP2;P2;SDS_P1;SDS_P2;PMS_P1;PMS_P2;Temp;Humidity;BMP_temperature;BMP_pressure;BME280_temperature;BME280_humidity;BME280_pressure;Samples;Min_cycle;Max_cycle;Signal;HPM_P1;HPM_P2
2024/01/11 00:01:35;;;;;;;54.17;36.80;;;-4.70;99.90;;;;;;4880767;29;20481;-79
2024/01/11 00:04:03;;;;;;;53.63;38.17;;;-4.70;99.90;;;;;;4883304;29;20457;-79
2024/01/11 00:06:30;;;;;;;50.03;38.53;;;-4.80;99.90;;;;;;4877594;29;20474;-79
2024/01/11 00:08:57;;;;;;;55.07;38.40;;;-4.80;99.90;;;;;;4877862;29;20463;-79
2024/01/11 00:11:24;;;;;;;54.00;39.43;;;-4.80;99.90;;;;;;4877450;29;20474;-79
2024/01/11 00:13:50;;;;;;;51.40;37.93;;;-4.90;99.90;;;;;;4880223;29;20438;-79
2024/01/11 00:16:17;;;;;;;50.63;37.07;;;-4.90;99.90;;;;;;4877614;29;20488;-79
2024/01/11 00:18:44;;;;;;;51.23;37.23;;;-4.90;99.90;;;;;;4877888;29;20485;-79
2024/01/11 00:21:13;;;;;;;49.87;37.80;;;-4.90;99.90;;;;;;4877756;29;20485;-80
2024/01/11 00:23:39;;;;;;;51.57;36.43;;;-4.90;99.90;;;;;;4878503;29;20448;-79
2024/01/11 00:26:06;;;;;;;56.03;38.37;;;-4.90;99.90;;;;;;4878437;29;20493;-79
2024/01/11 00:28:33;;;;;;;55.07;37.17;;;-4.80;99.90;;;;;;4878768;29;20446;-79
2024/01/11 00:31:00;;;;;;;58.07;40.37;;;-4.90;99.90;;;;;;4877734;29;20453;-79
2024/01/11 00:33:26;;;;;;;55.00;38.37;;;-4.90;99.90;;;;;;4877477;29;20506;-79
2024/01/11 00:35:53;;;;;;;55.17;38.03;;;-4.90;99.90;;;;;;4878314;29;20457;-79
2024/01/11 00:38:21;;;;;;;53.93;37.97;;;-4.90;99.90;;;;;;4877355;29;20477;-79
2024/01/11 00:40:48;;;;;;;56.43;39.90;;;-5.00;99.90;;;;;;4885579;29;20534;-79
2024/01/11 00:43:15;;;;;;;50.80;38.40;;;-5.00;99.90;;;;;;4878369;29;20509;-79
2024/01/11 00:45:42;;;;;;;49.37;35.63;;;-5.00;99.90;;;;;;4878412;29;20473;-80
2024/01/11 00:48:09;;;;;;;57.63;40.67;;;-5.00;99.90;;;;;;4878598;29;20474;-79
2024/01/11 00:50:35;;;;;;;55.33;40.13;;;-5.00;99.90;;;;;;4878248;29;20449;-79
2024/01/11 00:53:02;;;;;;;55.37;38.63;;;-5.00;99.90;;;;;;4878227;29;20470;-79
2024/01/11 00:55:31;;;;;;;53.93;38.53;;;-5.00;99.90;;;;;;4876972;29;20488;-79
2024/01/11 00:57:57;;;;;;;54.83;39.27;;;-5.10;99.90;;;;;;4878067;29;20438;-79
2024/01/11 01:00:24;;;;;;;55.70;40.17;;;-5.10;99.90;;;;;;4877106;29;20517;-79
2024/01/11 01:02:51;;;;;;;62.80;40.57;;;-5.10;99.90;;;;;;4876848;29;20485;-79
2024/01/11 01:05:18;;;;;;;53.10;37.43;;;-5.10;99.90;;;;;;4878482;29;20442;-79
2024/01/11 01:07:45;;;;;;;62.50;39.30;;;-5.10;99.90;;;;;;4885657;29;20949;-79
2024/01/11 01:10:12;;;;;;;53.47;37.50;;;-5.10;99.90;;;;;;4878399;29;20557;-79
2024/01/11 01:12:40;;;;;;;53.83;39.27;;;-5.10;99.90;;;;;;4876440;29;20481;-79
2024/01/11 01:15:08;;;;;;;53.23;39.33;;;-5.10;99.90;;;;;;4878092;29;20510;-80
2024/01/11 01:17:35;;;;;;;55.60;38.93;;;-5.20;99.90;;;;;;4875937;29;20461;-79
2024/01/11 01:20:03;;;;;;;57.90;39.77;;;-5.20;99.90;;;;;;4876895;29;20996;-79
2024/01/11 01:22:29;;;;;;;59.27;39.33;;;-5.20;99.90;;;;;;4876471;29;20501;-79
2024/01/11 01:24:56;;;;;;;54.87;37.57;;;-5.10;99.90;;;;;;4877925;29;20480;-79
2024/01/11 01:27:23;;;;;;;53.83;38.93;;;-5.10;99.90;;;;;;4877780;29;20474;-79
2024/01/11 01:29:51;;;;;;;54.63;38.50;;;-5.20;99.90;;;;;;4874506;29;20445;-78
2024/01/11 01:32:18;;;;;;;63.23;41.93;;;-5.10;99.90;;;;;;4876792;29;20469;-79
2024/01/11 01:34:46;;;;;;;56.67;39.90;;;-5.20;99.90;;;;;;4884710;29;20450;-79
2024/01/11 01:37:12;;;;;;;53.43;38.60;;;-5.20;99.90;;;;;;4885743;29;20470;-79
2024/01/11 01:39:39;;;;;;;54.00;38.90;;;-5.30;99.90;;;;;;4876725;29;20454;-79
2024/01/11 01:42:06;;;;;;;58.23;38.47;;;-5.30;99.90;;;;;;4877768;29;20481;-79
2024/01/11 01:44:33;;;;;;;54.33;38.20;;;-5.30;99.90;;;;;;4877772;29;20446;-79
2024/01/11 01:47:01;;;;;;;57.67;39.23;;;-5.30;99.90;;;;;;4877729;29;20516;-79
2024/01/11 01:49:28;;;;;;;56.13;39.10;;;-5.30;99.90;;;;;;4876293;29;20978;-79
2024/01/11 01:51:56;;;;;;;52.43;37.70;;;-5.30;99.90;;;;;;4877607;29;21076;-79
2024/01/11 01:54:24;;;;;;;57.60;38.67;;;-5.30;99.90;;;;;;4876464;29;20454;-79
2024/01/11 01:56:53;;;;;;;57.87;39.10;;;-5.30;99.90;;;;;;4876393;29;20512;-78
2024/01/11 01:59:21;;;;;;;61.50;39.73;;;-5.30;99.90;;;;;;4877860;29;20446;-79
2024/01/11 02:01:48;;;;;;;56.67;39.60;;;-5.30;99.90;;;;;;4877619;29;20517;-79
2024/01/11 02:04:17;;;;;;;52.07;38.80;;;-5.30;99.90;;;;;;4877393;29;20446;-79
2024/01/11 02:06:47;;;;;;;55.00;37.57;;;-5.30;99.90;;;;;;4876044;29;20478;-79
2024/01/11 02:09:14;;;;;;;53.13;38.57;;;-5.30;99.90;;;;;;4877879;29;20438;-79
2024/01/11 02:11:42;;;;;;;57.03;39.57;;;-5.30;99.90;;;;;;4876167;29;20488;-79
2024/01/11 02:14:09;;;;;;;54.23;39.97;;;-5.30;99.90;;;;;;4877719;29;20446;-79
2024/01/11 02:16:36;;;;;;;53.47;37.80;;;-5.30;99.90;;;;;;4877085;29;20501;-79
2024/01/11 02:19:03;;;;;;;54.37;38.20;;;-5.30;99.90;;;;;;4877677;29;20945;-79
2024/01/11 02:21:33;;;;;;;53.23;39.20;;;-5.20;99.90;;;;;;4876070;29;20505;-79
2024/01/11 02:24:07;;;;;;;52.63;38.97;;;-5.30;99.90;;;;;;4877598;29;20442;-79
2024/01/11 02:26:34;;;;;;;53.20;38.23;;;-5.20;99.90;;;;;;4877064;29;20477;-79
2024/01/11 02:29:01;;;;;;;56.47;39.67;;;-5.30;99.90;;;;;;4877734;29;20449;-79
2024/01/11 02:31:28;;;;;;;48.93;38.47;;;-5.30;99.90;;;;;;4880964;29;20450;-79
2024/01/11 02:33:56;;;;;;;50.00;38.00;;;-5.20;99.90;;;;;;4879346;29;20903;-79
2024/01/11 02:36:23;;;;;;;56.43;39.57;;;-5.20;99.90;;;;;;4879478;29;20903;-79
2024/01/11 02:38:51;;;;;;;57.23;39.37;;;-5.20;99.90;;;;;;4880405;29;20448;-79
2024/01/11 02:41:19;;;;;;;53.53;38.37;;;-5.30;99.90;;;;;;4880415;29;20480;-79
2024/01/11 02:43:48;;;;;;;53.10;38.33;;;-5.30;99.90;;;;;;4889370;29;20450;-79
2024/01/11 02:46:16;;;;;;;52.97;38.30;;;-5.40;99.90;;;;;;4885466;29;20466;-79
2024/01/11 02:48:43;;;;;;;55.70;38.57;;;-5.40;99.90;;;;;;4879139;29;20453;-79
2024/01/11 02:51:10;;;;;;;57.53;39.40;;;-5.40;99.90;;;;;;4884606;29;20453;-79
2024/01/11 02:53:36;;;;;;;58.47;38.57;;;-5.40;99.90;;;;;;4877953;29;20517;-79
2024/01/11 02:56:03;;;;;;;55.03;38.60;;;-5.40;99.90;;;;;;4880146;29;20499;-79
2024/01/11 02:58:32;;;;;;;59.97;41.10;;;-5.50;99.90;;;;;;4879057;29;20510;-79
2024/01/11 03:00:58;;;;;;;57.30;40.07;;;-5.50;99.90;;;;;;4880464;29;20484;-79
2024/01/11 03:03:25;;;;;;;51.43;39.33;;;-5.40;99.90;;;;;;4878678;29;21012;-79
2024/01/11 03:05:52;;;;;;;57.93;39.60;;;-5.40;99.90;;;;;;4879901;29;20992;-79
2024/01/11 03:08:19;;;;;;;56.53;38.57;;;-5.40;99.90;;;;;;4888109;29;20456;-79
2024/01/11 03:10:46;;;;;;;53.67;38.50;;;-5.50;99.90;;;;;;4879760;29;20542;-79
2024/01/11 03:13:13;;;;;;;59.30;40.33;;;-5.50;99.90;;;;;;4878643;29;20460;-79
2024/01/11 03:15:41;;;;;;;56.57;39.00;;;-5.50;99.90;;;;;;4879450;29;20596;-79
2024/01/11 03:18:08;;;;;;;53.37;37.77;;;-5.50;99.90;;;;;;4878870;29;20961;-79
2024/01/11 03:20:35;;;;;;;50.50;36.67;;;-5.50;99.90;;;;;;4879944;29;20877;-79
2024/01/11 03:23:02;;;;;;;60.20;37.50;;;-5.60;99.90;;;;;;4878875;29;20473;-79
2024/01/11 03:25:30;;;;;;;55.97;37.07;;;-5.60;99.90;;;;;;4879610;29;20457;-79
2024/01/11 03:27:58;;;;;;;63.97;38.47;;;-5.60;99.90;;;;;;4866409;29;20454;-79
2024/01/11 03:30:25;;;;;;;44.40;35.07;;;-5.60;99.90;;;;;;4878493;29;20464;-79
2024/01/11 03:32:53;;;;;;;56.53;38.90;;;-5.70;99.90;;;;;;4878179;29;20449;-79
2024/01/11 03:35:21;;;;;;;52.43;38.60;;;-5.60;99.90;;;;;;4878400;29;20464;-79
2024/01/11 03:37:47;;;;;;;54.67;36.73;;;-5.60;99.90;;;;;;4878597;29;20457;-79
2024/01/11 03:40:14;;;;;;;52.40;36.93;;;-5.60;99.90;;;;;;4879006;29;20449;-79
2024/01/11 03:42:42;;;;;;;51.57;35.90;;;-5.60;99.90;;;;;;4878605;29;20496;-78
2024/01/11 03:45:10;;;;;;;50.83;36.13;;;-5.60;99.90;;;;;;4878540;29;20448;-79
2024/01/11 03:47:37;;;;;;;51.57;35.30;;;-5.60;99.90;;;;;;4878372;29;20450;-79
2024/01/11 03:50:06;;;;;;;49.27;36.97;;;-5.60;99.90;;;;;;4883285;29;20461;-82
2024/01/11 03:52:32;;;;;;;50.33;37.37;;;-5.60;99.90;;;;;;4884616;29;20953;-80
2024/01/11 03:54:59;;;;;;;47.40;35.97;;;-5.70;99.90;;;;;;4887679;29;20549;-77
2024/01/11 03:57:26;;;;;;;48.30;35.17;;;-5.70;99.90;;;;;;4879878;29;20488;-81
2024/01/11 03:59:53;;;;;;;51.07;36.83;;;-5.80;99.90;;;;;;4876874;29;20497;-79
2024/01/11 04:02:20;;;;;;;52.70;36.00;;;-5.70;99.90;;;;;;4885641;29;20909;-81
2024/01/11 04:04:47;;;;;;;58.47;35.43;;;-5.80;99.90;;;;;;4887003;29;20489;-82
2024/01/11 04:07:16;;;;;;;50.27;34.43;;;-5.80;99.90;;;;;;4879644;29;21084;-81
2024/01/11 04:09:43;;;;;;;49.53;35.00;;;-5.80;99.90;;;;;;4882624;29;21016;-81
2024/01/11 04:12:10;;;;;;;48.60;36.77;;;-5.80;99.90;;;;;;4885337;29;20450;-80
2024/01/11 04:14:40;;;;;;;47.10;35.20;;;-5.80;99.90;;;;;;4896268;29;20452;-80
2024/01/11 04:17:07;;;;;;;51.43;35.37;;;-5.80;99.90;;;;;;4879848;29;20478;-82
2024/01/11 04:19:34;;;;;;;46.10;36.07;;;-5.80;99.90;;;;;;4879261;29;20456;-82
2024/01/11 04:22:01;;;;;;;44.33;32.80;;;-5.80;99.90;;;;;;4880067;29;20528;-81
2024/01/11 04:24:29;;;;;;;50.73;36.13;;;-5.80;99.90;;;;;;4875670;29;20457;-82
2024/01/11 04:26:56;;;;;;;49.03;32.80;;;-5.90;99.90;;;;;;4879658;29;20508;-81
2024/01/11 04:29:22;;;;;;;48.10;36.03;;;-5.90;99.90;;;;;;4888706;29;20454;-81
2024/01/11 04:31:49;;;;;;;45.43;33.37;;;-5.90;99.90;;;;;;4879872;29;20449;-81
2024/01/11 04:34:16;;;;;;;44.13;34.07;;;-5.90;99.90;;;;;;4878835;29;20503;-81
2024/01/11 04:36:43;;;;;;;47.40;34.97;;;-5.90;99.90;;;;;;4879418;29;20545;-80
2024/01/11 04:39:09;;;;;;;47.30;33.40;;;-5.90;99.90;;;;;;4879200;29;21025;-81
2024/01/11 04:41:38;;;;;;;48.93;34.87;;;-5.90;99.90;;;;;;4879762;29;20450;-81
2024/01/11 04:44:05;;;;;;;49.50;34.83;;;-5.80;99.90;;;;;;4871442;29;21044;-82
2024/01/11 04:46:32;;;;;;;48.43;34.33;;;-5.90;99.90;;;;;;4873532;29;20885;-80
2024/01/11 04:48:59;;;;;;;50.70;34.27;;;-5.90;99.90;;;;;;4878558;29;20439;-79
2024/01/11 04:51:26;;;;;;;48.70;35.10;;;-5.90;99.90;;;;;;4878395;29;20447;-79
2024/01/11 04:53:52;;;;;;;51.97;34.00;;;-5.90;99.90;;;;;;4875709;29;20449;-79
2024/01/11 04:56:19;;;;;;;49.33;36.33;;;-5.90;99.90;;;;;;4878199;29;20923;-80
2024/01/11 04:58:48;;;;;;;50.33;35.77;;;-6.00;99.90;;;;;;4877237;29;20464;-80
2024/01/11 05:01:15;;;;;;;50.63;35.73;;;-6.00;99.90;;;;;;4877442;29;20488;-80
2024/01/11 05:03:43;;;;;;;46.60;34.37;;;-6.00;99.90;;;;;;4878418;29;20492;-79
2024/01/11 05:06:15;;;;;;;48.93;34.47;;;-6.00;99.90;;;;;;4885397;29;20459;-80
2024/01/11 05:08:42;;;;;;;47.37;33.20;;;-5.90;99.90;;;;;;4876718;29;20461;-80
2024/01/11 05:11:08;;;;;;;46.53;34.57;;;-5.90;99.90;;;;;;4876774;29;20498;-80
2024/01/11 05:13:35;;;;;;;44.73;34.17;;;-6.00;99.90;;;;;;4876666;29;20462;-80
2024/01/11 05:16:04;;;;;;;49.43;33.90;;;-6.00;99.90;;;;;;4876739;29;20501;-79
2024/01/11 05:18:30;;;;;;;48.53;34.63;;;-6.10;99.90;;;;;;4876802;29;20456;-79
2024/01/11 05:20:57;;;;;;;45.63;35.10;;;-6.10;99.90;;;;;;4877265;29;20974;-80
2024/01/11 05:23:24;;;;;;;46.50;33.93;;;-6.10;99.90;;;;;;4876514;29;20485;-80
2024/01/11 05:25:51;;;;;;;43.50;32.00;;;-6.10;99.90;;;;;;4876295;29;20477;-80
2024/01/11 05:28:18;;;;;;;40.73;31.67;;;-6.10;99.90;;;;;;4877106;29;20461;-79
2024/01/11 05:30:45;;;;;;;40.47;33.00;;;-6.10;99.90;;;;;;4877890;29;20441;-79
2024/01/11 05:33:13;;;;;;;46.17;33.20;;;-6.10;99.90;;;;;;4877954;29;20462;-79
2024/01/11 05:35:39;;;;;;;45.03;33.33;;;-6.10;99.90;;;;;;4877082;29;20831;-79
2024/01/11 05:38:06;;;;;;;45.10;33.67;;;-6.10;99.90;;;;;;4875506;29;20615;-79
2024/01/11 05:40:33;;;;;;;45.03;34.70;;;-6.10;99.90;;;;;;4877123;29;21007;-80
2024/01/11 05:43:00;;;;;;;50.13;34.00;;;-6.10;99.90;;;;;;4876479;29;20488;-80
2024/01/11 05:45:26;;;;;;;47.60;34.40;;;-6.20;99.90;;;;;;4877230;29;20461;-79
2024/01/11 05:47:53;;;;;;;48.17;35.67;;;-6.20;99.90;;;;;;4876356;29;20462;-79
2024/01/11 05:50:21;;;;;;;43.77;33.17;;;-6.20;99.90;;;;;;4877868;29;20507;-79
2024/01/11 05:52:48;;;;;;;46.20;34.17;;;-6.20;99.90;;;;;;4876326;29;20852;-79
2024/01/11 05:55:15;;;;;;;46.67;34.80;;;-6.20;99.90;;;;;;4871050;29;20450;-80
2024/01/11 05:57:42;;;;;;;46.63;34.87;;;-6.10;99.90;;;;;;4878302;29;20449;-80
2024/01/11 06:00:09;;;;;;;46.37;34.83;;;-6.10;99.90;;;;;;4878276;29;20461;-80
2024/01/11 06:02:37;;;;;;;44.50;33.33;;;-6.10;99.90;;;;;;4881266;29;20491;-79
2024/01/11 06:05:04;;;;;;;46.53;32.70;;;-6.10;99.90;;;;;;4880309;29;20520;-80
2024/01/11 06:07:33;;;;;;;48.10;33.90;;;-6.10;99.90;;;;;;4880630;29;20933;-79
2024/01/11 06:10:01;;;;;;;43.47;33.50;;;-6.10;99.90;;;;;;4881040;29;20859;-80
2024/01/11 06:12:27;;;;;;;43.83;34.50;;;-6.10;99.90;;;;;;4880204;29;20460;-79
2024/01/11 06:14:54;;;;;;;48.63;36.20;;;-6.10;99.90;;;;;;4880244;29;21002;-80
2024/01/11 06:17:21;;;;;;;50.63;34.63;;;-6.10;99.90;;;;;;4881641;29;20484;-80
2024/01/11 06:19:48;;;;;;;48.63;35.80;;;-6.10;99.90;;;;;;4879737;29;20459;-81
2024/01/11 06:22:14;;;;;;;56.33;35.77;;;-6.20;99.90;;;;;;4881278;29;20520;-80
2024/01/11 06:24:43;;;;;;;49.33;34.87;;;-6.20;99.90;;;;;;4879846;29;21024;-80
2024/01/11 06:27:09;;;;;;;42.03;32.03;;;-6.10;99.90;;;;;;4879914;29;20521;-80
2024/01/11 06:29:36;;;;;;;51.13;34.77;;;-6.10;99.90;;;;;;4879902;29;20464;-80
2024/01/11 06:32:03;;;;;;;48.20;34.60;;;-6.20;99.90;;;;;;4883652;29;20519;-79
2024/01/11 06:34:30;;;;;;;48.90;35.43;;;-6.10;99.90;;;;;;4880742;29;20860;-80
2024/01/11 06:36:57;;;;;;;46.23;34.17;;;-6.20;99.90;;;;;;4880777;29;20475;-80
2024/01/11 06:39:24;;;;;;;45.53;34.17;;;-6.10;99.90;;;;;;4881488;29;20447;-79
2024/01/11 06:41:52;;;;;;;45.87;33.37;;;-6.20;99.90;;;;;;4880696;29;20538;-79
2024/01/11 06:44:18;;;;;;;41.80;32.77;;;-6.10;99.90;;;;;;4880553;29;20537;-79
2024/01/11 06:46:45;;;;;;;47.17;32.80;;;-6.10;99.90;;;;;;4879645;29;20471;-80
2024/01/11 06:49:12;;;;;;;47.07;33.90;;;-6.10;99.90;;;;;;4880805;29;20477;-80
2024/01/11 06:51:39;;;;;;;52.90;35.67;;;-6.20;99.90;;;;;;4881423;29;20452;-80
2024/01/11 06:54:06;;;;;;;42.80;31.87;;;-6.20;99.90;;;;;;4880565;29;20464;-79
2024/01/11 06:56:33;;;;;;;47.20;34.27;;;-6.20;99.90;;;;;;4881316;29;20470;-79
2024/01/11 06:59:01;;;;;;;48.30;34.57;;;-6.10;99.90;;;;;;4881236;29;20513;-80
2024/01/11 07:01:28;;;;;;;51.77;35.77;;;-6.20;99.90;;;;;;4879941;29;20460;-80
2024/01/11 07:03:55;;;;;;;48.00;33.93;;;-6.10;99.90;;;;;;4881197;29;20563;-80
2024/01/11 07:06:21;;;;;;;47.30;33.27;;;-6.10;99.90;;;;;;4879103;29;20983;-80
2024/01/11 07:08:48;;;;;;;46.53;34.30;;;-6.20;99.90;;;;;;4880123;29;20450;-80
2024/01/11 07:11:15;;;;;;;47.93;35.43;;;-6.10;99.90;;;;;;4879991;29;20448;-80
2024/01/11 07:13:43;;;;;;;47.20;34.97;;;-6.10;99.90;;;;;;4879739;29;20481;-79
2024/01/11 07:16:11;;;;;;;47.73;35.07;;;-6.10;99.90;;;;;;4879651;29;20480;-80
2024/01/11 07:18:37;;;;;;;51.20;33.53;;;-6.20;99.90;;;;;;4880475;29;20469;-80
2024/01/11 07:21:05;;;;;;;48.60;34.80;;;-6.20;99.90;;;;;;4879288;29;20456;-80
2024/01/11 07:23:31;;;;;;;50.57;33.60;;;-6.10;99.90;;;;;;4878786;29;20481;-80
2024/01/11 07:25:58;;;;;;;45.57;30.83;;;-6.00;99.90;;;;;;4880079;29;20492;-79
2024/01/11 07:28:25;;;;;;;45.73;33.90;;;-6.00;99.90;;;;;;4880091;29;20510;-80
2024/01/11 07:30:53;;;;;;;41.13;31.93;;;-6.00;99.90;;;;;;4880591;29;20540;-80
2024/01/11 07:33:21;;;;;;;51.97;33.90;;;-6.00;99.90;;;;;;4875006;29;20441;-80
2024/01/11 07:35:48;;;;;;;51.00;36.30;;;-6.00;99.90;;;;;;4878630;29;20489;-79
2024/01/11 07:38:15;;;;;;;46.97;33.10;;;-5.90;99.90;;;;;;4878536;29;20450;-79
2024/01/11 07:40:42;;;;;;;44.93;32.40;;;-5.90;99.90;;;;;;4878463;29;20478;-80
2024/01/11 07:43:09;;;;;;;49.90;34.40;;;-5.80;99.90;;;;;;4879780;29;20515;-80
2024/01/11 07:45:36;;;;;;;42.30;31.87;;;-5.80;99.90;;;;;;4879941;29;20473;-80
2024/01/11 07:48:04;;;;;;;49.97;33.50;;;-5.70;99.90;;;;;;4878385;29;20460;-80
2024/01/11 07:50:33;;;;;;;47.63;32.90;;;-5.60;99.90;;;;;;4879320;29;20446;-79
2024/01/11 07:52:59;;;;;;;47.20;32.87;;;-5.50;99.90;;;;;;4878101;29;20478;-79
2024/01/11 07:55:26;;;;;;;50.20;36.37;;;-5.40;99.90;;;;;;4879644;29;20450;-80
2024/01/11 07:57:53;;;;;;;52.57;37.80;;;-5.40;99.90;;;;;;4878426;29;21026;-80
2024/01/11 08:00:20;;;;;;;54.50;38.23;;;-5.30;99.90;;;;;;4879013;29;20442;-79
2024/01/11 08:02:47;;;;;;;55.80;36.93;;;-5.20;99.90;;;;;;4878055;29;20829;-80
2024/01/11 08:05:13;;;;;;;57.20;37.67;;;-5.10;99.90;;;;;;4878941;29;20473;-79
2024/01/11 08:07:42;;;;;;;50.07;35.83;;;-5.00;99.90;;;;;;4879355;29;20511;-80
2024/01/11 08:10:10;;;;;;;47.70;35.57;;;-4.90;99.90;;;;;;4877700;29;20461;-79
2024/01/11 08:12:36;;;;;;;45.70;32.80;;;-4.80;99.90;;;;;;4879308;29;20443;-80
2024/01/11 08:15:04;;;;;;;43.03;31.93;;;-4.70;99.90;;;;;;4879227;29;20466;-79
2024/01/11 08:17:30;;;;;;;43.03;31.53;;;-4.60;99.90;;;;;;4878953;29;20917;-79
2024/01/11 08:19:57;;;;;;;46.53;33.00;;;-4.50;99.90;;;;;;4877646;29;20889;-79
2024/01/11 08:22:25;;;;;;;49.73;33.40;;;-4.40;99.90;;;;;;4877960;29;20817;-80
2024/01/11 08:24:53;;;;;;;45.77;33.97;;;-4.40;99.90;;;;;;4875057;29;20492;-80
2024/01/11 08:27:20;;;;;;;43.33;33.07;;;-4.30;99.90;;;;;;4876996;29;20518;-80
2024/01/11 08:29:47;;;;;;;45.40;32.43;;;-4.20;99.90;;;;;;4877399;29;20450;-80
2024/01/11 08:32:14;;;;;;;46.53;34.53;;;-4.10;99.90;;;;;;4877490;29;20442;-80
2024/01/11 08:34:41;;;;;;;50.27;35.17;;;-4.10;99.90;;;;;;4878782;29;20499;-80
2024/01/11 08:37:07;;;;;;;46.13;32.57;;;-4.00;99.90;;;;;;4877504;29;20469;-79
2024/01/11 08:39:34;;;;;;;45.87;33.03;;;-3.90;99.90;;;;;;4879033;29;20454;-80
2024/01/11 08:42:03;;;;;;;47.53;33.87;;;-3.80;99.90;;;;;;4877308;29;20481;-83
2024/01/11 08:44:30;;;;;;;41.03;32.53;;;-3.90;99.90;;;;;;4879169;29;20470;-83
2024/01/11 08:46:59;;;;;;;49.00;35.00;;;-3.80;99.90;;;;;;4879347;29;20466;-83
2024/01/11 08:49:26;;;;;;;50.53;34.40;;;-3.90;99.90;;;;;;4878006;29;20984;-80
2024/01/11 08:51:52;;;;;;;49.17;34.90;;;-3.80;99.90;;;;;;4878259;29;20441;-80
2024/01/11 08:54:20;;;;;;;46.07;33.20;;;-3.80;99.90;;;;;;4876961;29;20486;-79
2024/01/11 08:56:48;;;;;;;43.27;32.70;;;-3.70;99.90;;;;;;4878401;29;20846;-78
2024/01/11 08:59:16;;;;;;;43.67;33.67;;;-3.60;99.90;;;;;;4876868;29;20548;-78
2024/01/11 09:01:43;;;;;;;45.97;34.73;;;-3.60;99.90;;;;;;4883659;29;20936;-80
2024/01/11 09:04:09;;;;;;;50.37;34.23;;;-3.60;99.90;;;;;;4878887;29;20542;-80
2024/01/11 09:06:36;;;;;;;52.37;36.03;;;-3.60;99.90;;;;;;4882501;29;20461;-80
2024/01/11 09:09:03;;;;;;;49.40;34.90;;;-3.60;99.90;;;;;;4881489;29;20452;-79
2024/01/11 09:11:30;;;;;;;49.70;35.93;;;-3.60;99.90;;;;;;4878965;29;20454;-80
2024/01/11 09:13:57;;;;;;;45.60;34.40;;;-3.50;99.90;;;;;;4876978;29;20466;-80
2024/01/11 09:16:25;;;;;;;49.80;35.67;;;-3.40;99.90;;;;;;4878568;29;20481;-79
2024/01/11 09:18:52;;;;;;;51.27;36.13;;;-3.30;99.90;;;;;;4880127;29;20442;-80
2024/01/11 09:21:19;;;;;;;46.70;35.10;;;-3.20;99.90;;;;;;4877874;29;20445;-81
2024/01/11 09:23:46;;;;;;;45.33;34.27;;;-3.10;99.90;;;;;;4885434;29;20572;-81
2024/01/11 09:26:14;;;;;;;46.67;34.57;;;-3.00;99.90;;;;;;4884810;29;21028;-81
2024/01/11 09:28:40;;;;;;;51.13;35.97;;;-3.00;99.90;;;;;;4876885;29;21001;-80
2024/01/11 09:31:07;;;;;;;51.30;36.67;;;-3.10;99.90;;;;;;4878548;29;20480;-80
2024/01/11 09:33:35;;;;;;;49.00;35.83;;;-3.00;99.90;;;;;;4883293;29;20817;-81
2024/01/11 09:36:02;;;;;;;47.87;36.20;;;-2.90;99.90;;;;;;4879206;29;20474;-82
2024/01/11 09:38:29;;;;;;;46.97;35.10;;;-2.70;99.90;;;;;;4888380;29;20462;-81
2024/01/11 09:41:06;;;;;;;49.60;36.60;;;-2.60;99.90;;;;;;4881970;29;20453;-79
2024/01/11 09:43:35;;;;;;;50.13;36.13;;;-2.50;99.90;;;;;;4884646;29;20453;-80
2024/01/11 09:46:05;;;;;;;54.50;36.17;;;-2.40;99.90;;;;;;4885715;29;20481;-80
2024/01/11 09:48:35;;;;;;;54.27;35.90;;;-2.40;99.90;;;;;;4880883;29;20539;-80
2024/01/11 09:51:03;;;;;;;48.37;34.97;;;-2.30;99.90;;;;;;4881206;29;20449;-79
2024/01/11 09:53:31;;;;;;;56.03;39.10;;;-2.10;99.90;;;;;;4879169;29;20950;-79
2024/01/11 09:55:59;;;;;;;48.27;35.37;;;-2.10;99.90;;;;;;4873381;29;21155;-80
2024/01/11 09:58:26;;;;;;;53.83;37.03;;;-2.00;99.90;;;;;;4881267;29;20446;-80
2024/01/11 10:00:55;;;;;;;48.80;36.17;;;-1.90;99.90;;;;;;4880268;29;20451;-80
2024/01/11 10:03:24;;;;;;;50.87;36.23;;;-1.80;99.90;;;;;;4881230;29;20462;-80
2024/01/11 10:05:57;;;;;;;49.73;34.53;;;-1.80;99.90;;;;;;4880232;29;20573;-80
2024/01/11 10:08:26;;;;;;;48.63;34.77;;;-1.70;99.90;;;;;;4881054;29;20484;-78
2024/01/11 10:10:52;;;;;;;54.53;37.83;;;-1.70;99.90;;;;;;4883951;29;20478;-80
2024/01/11 10:13:20;;;;;;;55.97;36.80;;;-1.80;99.90;;;;;;4878699;29;20518;-79
2024/01/11 10:15:47;;;;;;;47.77;35.87;;;-1.80;99.90;;;;;;4878988;29;20482;-79
2024/01/11 10:18:13;;;;;;;47.73;36.17;;;-1.90;99.90;;;;;;4880505;29;20949;-81
2024/01/11 10:20:40;;;;;;;50.93;34.90;;;-1.90;99.90;;;;;;4880906;29;20808;-80
2024/01/11 10:23:08;;;;;;;52.90;38.50;;;-1.80;99.90;;;;;;4879532;29;20446;-80
2024/01/11 10:25:36;;;;;;;49.77;38.07;;;-1.80;99.90;;;;;;4880390;29;20565;-79
2024/01/11 10:28:03;;;;;;;54.73;39.63;;;-1.80;99.90;;;;;;4880913;29;20438;-80
2024/01/11 10:30:30;;;;;;;54.57;38.30;;;-1.80;99.90;;;;;;4879246;29;20454;-80
2024/01/11 10:32:58;;;;;;;54.57;39.57;;;-1.80;99.90;;;;;;4879313;29;20450;-80
2024/01/11 10:35:26;;;;;;;60.00;41.23;;;-1.90;99.90;;;;;;4879164;29;20966;-80
2024/01/11 10:37:54;;;;;;;56.60;39.50;;;-1.90;99.90;;;;;;4879563;29;20458;-80
2024/01/11 10:40:25;;;;;;;51.50;38.50;;;-2.00;99.90;;;;;;4880284;29;20447;-80
2024/01/11 10:42:53;;;;;;;53.40;37.93;;;-2.00;99.90;;;;;;4879388;29;20908;-80
2024/01/11 10:45:20;;;;;;;59.13;39.97;;;-2.10;99.90;;;;;;4880521;29;20876;-80
2024/01/11 10:47:54;;;;;;;54.30;40.13;;;-2.20;99.90;;;;;;4879689;29;20877;-80
2024/01/11 10:50:22;;;;;;;53.20;37.43;;;-2.10;99.90;;;;;;4880362;29;20511;-80
2024/01/11 10:53:03;;;;;;;53.83;39.90;;;-2.10;99.90;;;;;;4880262;29;20537;-80
2024/01/11 10:55:32;;;;;;;59.80;41.40;;;-2.20;99.90;;;;;;4880660;29;20453;-81
2024/01/11 10:58:01;;;;;;;55.50;39.77;;;-2.10;99.90;;;;;;4880276;29;20494;-80
2024/01/11 11:00:28;;;;;;;55.77;39.47;;;-2.10;99.90;;;;;;4878950;29;20455;-80
2024/01/11 11:02:56;;;;;;;56.13;38.93;;;-2.10;99.90;;;;;;4878959;29;20466;-81
2024/01/11 11:05:24;;;;;;;57.93;41.87;;;-2.00;99.90;;;;;;4880042;29;20541;-81
2024/01/11 11:07:51;;;;;;;52.87;39.50;;;-2.00;99.90;;;;;;4881281;29;20470;-81
2024/01/11 11:10:20;;;;;;;50.97;38.43;;;-2.00;99.90;;;;;;4879010;29;20459;-80
2024/01/11 11:12:50;;;;;;;58.23;41.30;;;-2.00;99.90;;;;;;4872412;29;20453;-80
2024/01/11 11:15:17;;;;;;;58.57;39.57;;;-2.10;99.90;;;;;;4878935;29;20442;-81
2024/01/11 11:17:45;;;;;;;62.77;41.87;;;-2.00;99.90;;;;;;4886676;29;20458;-81
2024/01/11 11:20:13;;;;;;;53.50;39.10;;;-2.00;99.90;;;;;;4878756;29;20485;-80
2024/01/11 11:22:42;;;;;;;59.90;41.87;;;-2.00;99.90;;;;;;4878690;29;20457;-81
2024/01/11 11:25:10;;;;;;;55.87;39.60;;;-2.00;99.90;;;;;;4873632;29;20482;-80
2024/01/11 11:27:37;;;;;;;54.23;40.17;;;-2.10;99.90;;;;;;4879217;29;20548;-81
2024/01/11 11:30:06;;;;;;;51.13;39.00;;;-2.10;99.90;;;;;;4878868;29;20893;-80
2024/01/11 11:32:37;;;;;;;59.70;41.67;;;-2.00;99.90;;;;;;4878422;29;20888;-80
2024/01/11 11:35:05;;;;;;;55.57;40.50;;;-2.00;99.90;;;;;;4880242;29;20541;-83
2024/01/11 11:37:32;;;;;;;54.53;41.10;;;-2.00;99.90;;;;;;4880345;29;20546;-83
2024/01/11 11:39:59;;;;;;;57.30;41.57;;;-1.90;99.90;;;;;;4878723;29;20493;-80
2024/01/11 11:42:28;;;;;;;60.73;41.50;;;-1.90;99.90;;;;;;4877081;29;20449;-80
2024/01/11 11:44:57;;;;;;;54.77;40.70;;;-1.80;99.90;;;;;;4878020;29;20788;-81
2024/01/11 11:47:32;;;;;;;52.57;39.10;;;-1.80;99.90;;;;;;4879568;29;20843;-80
2024/01/11 11:50:05;;;;;;;56.03;40.57;;;-1.80;99.90;;;;;;4878650;29;20512;-81
2024/01/11 11:52:34;;;;;;;56.50;42.53;;;-1.80;99.90;;;;;;4878389;29;20463;-80
2024/01/11 11:55:02;;;;;;;53.30;40.70;;;-1.90;99.90;;;;;;4885364;29;20449;-83
2024/01/11 11:57:29;;;;;;;55.50;39.90;;;-1.80;99.90;;;;;;4881624;29;20479;-83
2024/01/11 11:59:58;;;;;;;52.80;39.23;;;-1.80;99.90;;;;;;4881045;29;20469;-81
2024/01/11 12:02:27;;;;;;;55.90;38.73;;;-1.80;99.90;;;;;;4879627;29;20468;-83
2024/01/11 12:04:54;;;;;;;52.50;38.60;;;-1.80;99.90;;;;;;4881749;29;20884;-86
2024/01/11 12:07:22;;;;;;;52.10;38.90;;;-1.80;99.90;;;;;;4881054;29;20465;-80
2024/01/11 12:09:49;;;;;;;53.90;39.30;;;-1.70;99.90;;;;;;4870203;29;20451;-80
2024/01/11 12:12:17;;;;;;;50.03;38.77;;;-1.60;99.90;;;;;;4879499;29;20791;-79
2024/01/11 12:14:46;;;;;;;55.37;40.40;;;-1.60;99.90;;;;;;4881657;29;20813;-80
2024/01/11 12:17:13;;;;;;;54.73;40.17;;;-1.60;99.90;;;;;;4882193;29;20481;-80
2024/01/11 12:19:41;;;;;;;54.80;40.47;;;-1.60;99.90;;;;;;4877467;29;20545;-80
2024/01/11 12:22:08;;;;;;;55.37;41.53;;;-1.60;99.90;;;;;;4878827;29;20447;-80
2024/01/11 12:24:34;;;;;;;56.60;41.73;;;-1.50;99.90;;;;;;4878317;29;20483;-80
2024/01/11 12:27:02;;;;;;;55.80;40.27;;;-1.50;99.90;;;;;;4878900;29;21151;-80
2024/01/11 12:29:29;;;;;;;50.60;39.83;;;-1.40;99.90;;;;;;4877372;29;20451;-80